sensor_id;sensor_type;location;lat;lon;timestamp;temperature;humidity
24338;DHT22;12457;50.832;4.346;2023-07-09T00:00:15;25.40;99.90
24338;DHT22;12457;50.832;4.346;2023-07-09T00:02:42;25.50;99.90
24338;DHT22;12457;50.832;4.346;2023-07-09T00:05:17;25.50;99.90
24338;DHT22;12457;50.832;4.346;2023-07-09T00:07:44;25.50;99.90
24338;DHT22;12457;50.832;4.346;2023-07-09T00:10:18;25.40;99.90
24338;DHT22;12457;50.832;4.346;2023-07-09T00:12:45;25.50;99.90
24338;DHT22;12457;50.832;4.346;2023-07-09T00:15:12;25.40;99.90
24338;DHT22;12457;50.832;4.346;2023-07-09T00:17:38;25.40;99.90
24338;DHT22;12457;50.832;4.346;2023-07-09T00:20:09;25.30;99.90
24338;DHT22;12457;50.832;4.346;2023-07-09T00:22:40;25.30;99.90
24338;DHT22;12457;50.832;4.346;2023-07-09T00:25:10;25.30;99.90
24338;DHT22;12457;50.832;4.346;2023-07-09T00:27:41;25.20;99.90
24338;DHT22;12457;50.832;4.346;2023-07-09T00:30:15;25.10;99.90
24338;DHT22;12457;50.832;4.346;2023-07-09T00:32:41;25.10;99.90
24338;DHT22;12457;50.832;4.346;2023-07-09T00:35:09;25.00;99.90
24338;DHT22;12457;50.832;4.346;2023-07-09T00:41:05;25.00;99.90
24338;DHT22;12457;50.832;4.346;2023-07-09T00:43:35;25.00;99.90
24338;DHT22;12457;50.832;4.346;2023-07-09T00:48:53;25.00;99.90
24338;DHT22;12457;50.832;4.346;2023-07-09T00:51:23;25.00;99.90
24338;DHT22;12457;50.832;4.346;2023-07-09T00:53:53;25.00;99.90
24338;DHT22;12457;50.832;4.346;2023-07-09T00:56:29;24.90;99.90
24338;DHT22;12457;50.832;4.346;2023-07-09T00:58:56;24.90;99.90
24338;DHT22;12457;50.832;4.346;2023-07-09T01:01:25;24.80;99.90
24338;DHT22;12457;50.832;4.346;2023-07-09T01:03:53;24.80;99.90
24338;DHT22;12457;50.832;4.346;2023-07-09T01:06:41;24.80;99.90
24338;DHT22;12457;50.832;4.346;2023-07-09T01:09:08;24.80;99.90
24338;DHT22;12457;50.832;4.346;2023-07-09T01:11:34;24.80;99.90
24338;DHT22;12457;50.832;4.346;2023-07-09T01:14:04;24.80;99.90
24338;DHT22;12457;50.832;4.346;2023-07-09T01:16:36;24.90;99.90
24338;DHT22;12457;50.832;4.346;2023-07-09T01:19:03;24.90;99.90
24338;DHT22;12457;50.832;4.346;2023-07-09T01:21:30;24.90;99.90
24338;DHT22;12457;50.832;4.346;2023-07-09T01:23:56;24.80;99.90
24338;DHT22;12457;50.832;4.346;2023-07-09T01:26:26;24.80;99.90
24338;DHT22;12457;50.832;4.346;2023-07-09T01:28:54;24.70;99.90
24338;DHT22;12457;50.832;4.346;2023-07-09T01:31:19;24.60;99.90
24338;DHT22;12457;50.832;4.346;2023-07-09T01:33:46;24.60;99.90
24338;DHT22;12457;50.832;4.346;2023-07-09T01:36:18;24.50;99.90
24338;DHT22;12457;50.832;4.346;2023-07-09T01:38:47;24.50;99.90
24338;DHT22;12457;50.832;4.346;2023-07-09T01:41:15;24.50;99.90
24338;DHT22;12457;50.832;4.346;2023-07-09T01:43:42;24.50;99.90
24338;DHT22;12457;50.832;4.346;2023-07-09T01:46:09;24.50;99.90
24338;DHT22;12457;50.832;4.346;2023-07-09T01:48:35;24.50;99.90
24338;DHT22;12457;50.832;4.346;2023-07-09T01:51:09;24.50;99.90
24338;DHT22;12457;50.832;4.346;2023-07-09T01:53:36;24.50;99.90
24338;DHT22;12457;50.832;4.346;2023-07-09T01:56:03;24.50;99.90
24338;DHT22;12457;50.832;4.346;2023-07-09T01:58:29;24.60;99.90
24338;DHT22;12457;50.832;4.346;2023-07-09T02:00:56;24.60;99.90
24338;DHT22;12457;50.832;4.346;2023-07-09T02:03:22;24.70;99.90
24338;DHT22;12457;50.832;4.346;2023-07-09T02:05:53;24.60;99.90
24338;DHT22;12457;50.832;4.346;2023-07-09T02:11:59;24.80;99.90
24338;DHT22;12457;50.832;4.346;2023-07-09T02:14:25;24.80;99.90
24338;DHT22;12457;50.832;4.346;2023-07-09T02:16:50;24.70;99.90
24338;DHT22;12457;50.832;4.346;2023-07-09T02:19:16;24.70;99.90
24338;DHT22;12457;50.832;4.346;2023-07-09T02:21:42;24.70;99.90
24338;DHT22;12457;50.832;4.346;2023-07-09T02:24:08;24.70;99.90
24338;DHT22;12457;50.832;4.346;2023-07-09T02:26:33;24.70;99.90
24338;DHT22;12457;50.832;4.346;2023-07-09T02:28:59;24.60;99.90
24338;DHT22;12457;50.832;4.346;2023-07-09T02:31:25;24.70;99.90
24338;DHT22;12457;50.832;4.346;2023-07-09T02:33:50;24.60;99.90
24338;DHT22;12457;50.832;4.346;2023-07-09T02:36:16;24.60;99.90
24338;DHT22;12457;50.832;4.346;2023-07-09T02:38:42;24.60;99.90
24338;DHT22;12457;50.832;4.346;2023-07-09T02:41:07;24.70;99.90
24338;DHT22;12457;50.832;4.346;2023-07-09T02:43:33;24.70;99.90
24338;DHT22;12457;50.832;4.346;2023-07-09T02:45:59;24.70;99.90
24338;DHT22;12457;50.832;4.346;2023-07-09T02:48:24;24.60;99.90
24338;DHT22;12457;50.832;4.346;2023-07-09T02:50:50;24.70;99.90
24338;DHT22;12457;50.832;4.346;2023-07-09T02:56:37;24.60;99.90
24338;DHT22;12457;50.832;4.346;2023-07-09T02:59:03;24.60;99.90
24338;DHT22;12457;50.832;4.346;2023-07-09T03:01:29;24.70;99.90
24338;DHT22;12457;50.832;4.346;2023-07-09T03:03:55;24.70;99.90
24338;DHT22;12457;50.832;4.346;2023-07-09T03:06:23;24.60;99.90
24338;DHT22;12457;50.832;4.346;2023-07-09T03:12:11;24.60;99.90
24338;DHT22;12457;50.832;4.346;2023-07-09T03:14:36;24.60;99.90
24338;DHT22;12457;50.832;4.346;2023-07-09T03:17:02;24.50;99.90
24338;DHT22;12457;50.832;4.346;2023-07-09T03:19:28;24.50;99.90
24338;DHT22;12457;50.832;4.346;2023-07-09T03:21:54;24.50;99.90
24338;DHT22;12457;50.832;4.346;2023-07-09T03:24:20;24.60;99.90
24338;DHT22;12457;50.832;4.346;2023-07-09T03:26:46;24.70;99.90
24338;DHT22;12457;50.832;4.346;2023-07-09T03:29:12;24.70;99.90
24338;DHT22;12457;50.832;4.346;2023-07-09T03:31:38;24.80;99.90
24338;DHT22;12457;50.832;4.346;2023-07-09T03:34:04;24.80;99.90
24338;DHT22;12457;50.832;4.346;2023-07-09T03:36:31;24.70;99.90
24338;DHT22;12457;50.832;4.346;2023-07-09T03:42:19;24.50;99.90
24338;DHT22;12457;50.832;4.346;2023-07-09T03:44:44;24.30;99.90
24338;DHT22;12457;50.832;4.346;2023-07-09T03:47:10;24.30;99.90
24338;DHT22;12457;50.832;4.346;2023-07-09T03:49:36;24.30;99.90
24338;DHT22;12457;50.832;4.346;2023-07-09T03:52:03;24.30;99.90
24338;DHT22;12457;50.832;4.346;2023-07-09T03:54:29;24.20;99.90
24338;DHT22;12457;50.832;4.346;2023-07-09T03:56:54;24.20;99.90
24338;DHT22;12457;50.832;4.346;2023-07-09T03:59:20;24.10;99.90
24338;DHT22;12457;50.832;4.346;2023-07-09T04:01:46;24.00;99.90
24338;DHT22;12457;50.832;4.346;2023-07-09T04:04:13;24.00;99.90
24338;DHT22;12457;50.832;4.346;2023-07-09T04:06:39;23.90;99.90
24338;DHT22;12457;50.832;4.346;2023-07-09T04:12:26;23.80;99.90
24338;DHT22;12457;50.832;4.346;2023-07-09T04:14:52;23.80;99.90
24338;DHT22;12457;50.832;4.346;2023-07-09T04:17:18;23.80;99.90
24338;DHT22;12457;50.832;4.346;2023-07-09T04:19:44;23.80;99.90
24338;DHT22;12457;50.832;4.346;2023-07-09T04:28:37;24.00;99.90
24338;DHT22;12457;50.832;4.346;2023-07-09T04:31:04;24.00;99.90
24338;DHT22;12457;50.832;4.346;2023-07-09T04:33:29;24.10;99.90
24338;DHT22;12457;50.832;4.346;2023-07-09T04:35:55;24.10;99.90
24338;DHT22;12457;50.832;4.346;2023-07-09T04:38:21;24.20;99.90
24338;DHT22;12457;50.832;4.346;2023-07-09T04:40:46;24.20;99.90
24338;DHT22;12457;50.832;4.346;2023-07-09T04:43:12;24.30;99.90
24338;DHT22;12457;50.832;4.346;2023-07-09T04:45:38;24.40;99.90
24338;DHT22;12457;50.832;4.346;2023-07-09T04:48:04;24.60;99.90
24338;DHT22;12457;50.832;4.346;2023-07-09T04:50:30;24.70;99.90
24338;DHT22;12457;50.832;4.346;2023-07-09T04:52:56;24.70;99.90
24338;DHT22;12457;50.832;4.346;2023-07-09T04:55:21;25.00;99.90
24338;DHT22;12457;50.832;4.346;2023-07-09T04:57:47;25.10;99.90
24338;DHT22;12457;50.832;4.346;2023-07-09T05:00:13;25.30;99.90
24338;DHT22;12457;50.832;4.346;2023-07-09T05:02:39;25.50;99.90
24338;DHT22;12457;50.832;4.346;2023-07-09T05:05:05;25.90;99.90
24338;DHT22;12457;50.832;4.346;2023-07-09T05:07:31;26.20;99.90
24338;DHT22;12457;50.832;4.346;2023-07-09T05:13:20;26.90;99.90
24338;DHT22;12457;50.832;4.346;2023-07-09T05:15:47;27.40;99.90
24338;DHT22;12457;50.832;4.346;2023-07-09T05:18:14;27.70;99.90
24338;DHT22;12457;50.832;4.346;2023-07-09T05:20:40;28.00;99.90
24338;DHT22;12457;50.832;4.346;2023-07-09T05:23:08;28.50;99.90
24338;DHT22;12457;50.832;4.346;2023-07-09T05:25:35;28.60;99.90
24338;DHT22;12457;50.832;4.346;2023-07-09T05:28:01;28.80;99.90
24338;DHT22;12457;50.832;4.346;2023-07-09T05:30:26;29.00;99.90
24338;DHT22;12457;50.832;4.346;2023-07-09T05:32:52;28.90;99.90
24338;DHT22;12457;50.832;4.346;2023-07-09T05:35:21;29.10;99.90
24338;DHT22;12457;50.832;4.346;2023-07-09T05:37:46;28.90;99.90
24338;DHT22;12457;50.832;4.346;2023-07-09T05:43:34;29.10;99.90
24338;DHT22;12457;50.832;4.346;2023-07-09T05:46:01;29.00;99.90
24338;DHT22;12457;50.832;4.346;2023-07-09T05:48:28;29.00;99.90
24338;DHT22;12457;50.832;4.346;2023-07-09T05:50:54;29.20;99.90
24338;DHT22;12457;50.832;4.346;2023-07-09T05:53:23;29.50;99.90
24338;DHT22;12457;50.832;4.346;2023-07-09T05:55:52;29.80;99.90
24338;DHT22;12457;50.832;4.346;2023-07-09T05:58:17;29.60;99.90
24338;DHT22;12457;50.832;4.346;2023-07-09T06:00:43;29.80;99.90
24338;DHT22;12457;50.832;4.346;2023-07-09T06:03:09;30.00;99.90
24338;DHT22;12457;50.832;4.346;2023-07-09T06:05:35;29.70;99.90
24338;DHT22;12457;50.832;4.346;2023-07-09T06:08:01;29.60;99.90
24338;DHT22;12457;50.832;4.346;2023-07-09T06:13:49;29.90;99.90
24338;DHT22;12457;50.832;4.346;2023-07-09T06:16:15;30.00;99.90
24338;DHT22;12457;50.832;4.346;2023-07-09T06:18:40;30.50;99.90
24338;DHT22;12457;50.832;4.346;2023-07-09T06:21:06;30.70;99.90
24338;DHT22;12457;50.832;4.346;2023-07-09T06:23:34;30.80;99.70
24338;DHT22;12457;50.832;4.346;2023-07-09T06:26:00;30.80;99.50
24338;DHT22;12457;50.832;4.346;2023-07-09T06:28:27;30.30;99.70
24338;DHT22;12457;50.832;4.346;2023-07-09T06:30:56;29.80;99.90
24338;DHT22;12457;50.832;4.346;2023-07-09T06:33:23;29.60;99.90
24338;DHT22;12457;50.832;4.346;2023-07-09T06:38:24;30.30;99.90
24338;DHT22;12457;50.832;4.346;2023-07-09T06:40:50;30.60;99.90
24338;DHT22;12457;50.832;4.346;2023-07-09T06:43:17;30.80;99.80
24338;DHT22;12457;50.832;4.346;2023-07-09T06:45:55;30.90;99.30
24338;DHT22;12457;50.832;4.346;2023-07-09T06:48:21;31.30;98.50
24338;DHT22;12457;50.832;4.346;2023-07-09T06:50:48;31.40;98.20
24338;DHT22;12457;50.832;4.346;2023-07-09T06:53:14;31.70;97.70
24338;DHT22;12457;50.832;4.346;2023-07-09T06:59:02;31.20;97.60
24338;DHT22;12457;50.832;4.346;2023-07-09T07:01:28;31.50;97.20
24338;DHT22;12457;50.832;4.346;2023-07-09T07:03:54;31.80;96.90
24338;DHT22;12457;50.832;4.346;2023-07-09T07:06:19;32.10;96.40
24338;DHT22;12457;50.832;4.346;2023-07-09T07:08:45;32.10;96.20
24338;DHT22;12457;50.832;4.346;2023-07-09T07:11:11;32.20;96.10
24338;DHT22;12457;50.832;4.346;2023-07-09T07:13:38;32.30;95.70
24338;DHT22;12457;50.832;4.346;2023-07-09T07:16:06;32.60;95.30
24338;DHT22;12457;50.832;4.346;2023-07-09T07:18:32;32.60;94.90
24338;DHT22;12457;50.832;4.346;2023-07-09T07:20:59;32.80;94.90
24338;DHT22;12457;50.832;4.346;2023-07-09T07:23:25;32.90;94.00
24338;DHT22;12457;50.832;4.346;2023-07-09T07:29:12;33.20;93.60
24338;DHT22;12457;50.832;4.346;2023-07-09T07:31:38;33.10;93.50
24338;DHT22;12457;50.832;4.346;2023-07-09T07:34:04;33.40;92.90
24338;DHT22;12457;50.832;4.346;2023-07-09T07:36:29;33.10;93.00
24338;DHT22;12457;50.832;4.346;2023-07-09T07:38:55;32.80;93.40
24338;DHT22;12457;50.832;4.346;2023-07-09T07:41:21;32.80;93.70
24338;DHT22;12457;50.832;4.346;2023-07-09T07:43:46;32.60;93.50
24338;DHT22;12457;50.832;4.346;2023-07-09T07:46:12;33.00;92.20
24338;DHT22;12457;50.832;4.346;2023-07-09T07:48:38;32.20;92.00
24338;DHT22;12457;50.832;4.346;2023-07-09T07:51:03;32.00;91.90
24338;DHT22;12457;50.832;4.346;2023-07-09T07:53:32;32.30;91.50
24338;DHT22;12457;50.832;4.346;2023-07-09T07:59:20;31.70;90.10
24338;DHT22;12457;50.832;4.346;2023-07-09T08:01:46;31.50;91.00
24338;DHT22;12457;50.832;4.346;2023-07-09T08:04:12;31.70;90.50
24338;DHT22;12457;50.832;4.346;2023-07-09T08:06:37;31.70;90.00
24338;DHT22;12457;50.832;4.346;2023-07-09T08:09:03;31.20;90.50
24338;DHT22;12457;50.832;4.346;2023-07-09T08:14:51;31.40;90.30
24338;DHT22;12457;50.832;4.346;2023-07-09T08:17:16;31.50;90.10
24338;DHT22;12457;50.832;4.346;2023-07-09T08:19:47;30.80;91.20
24338;DHT22;12457;50.832;4.346;2023-07-09T08:22:15;30.90;91.50
24338;DHT22;12457;50.832;4.346;2023-07-09T08:24:41;31.00;90.80
24338;DHT22;12457;50.832;4.346;2023-07-09T08:27:07;30.70;90.40
24338;DHT22;12457;50.832;4.346;2023-07-09T08:29:33;30.30;90.80
24338;DHT22;12457;50.832;4.346;2023-07-09T08:31:59;29.90;91.30
24338;DHT22;12457;50.832;4.346;2023-07-09T08:34:26;30.10;91.00
24338;DHT22;12457;50.832;4.346;2023-07-09T08:36:51;29.90;91.40
24338;DHT22;12457;50.832;4.346;2023-07-09T08:39:17;29.40;91.60
24338;DHT22;12457;50.832;4.346;2023-07-09T08:48:09;29.80;91.50
24338;DHT22;12457;50.832;4.346;2023-07-09T08:50:47;29.90;91.60
24338;DHT22;12457;50.832;4.346;2023-07-09T08:53:28;29.50;92.40
24338;DHT22;12457;50.832;4.346;2023-07-09T08:55:57;29.40;92.30
24338;DHT22;12457;50.832;4.346;2023-07-09T08:58:29;29.40;92.70
24338;DHT22;12457;50.832;4.346;2023-07-09T09:00:58;29.40;92.70
24338;DHT22;12457;50.832;4.346;2023-07-09T09:03:39;29.40;92.90
24338;DHT22;12457;50.832;4.346;2023-07-09T09:06:24;29.10;93.70
24338;DHT22;12457;50.832;4.346;2023-07-09T09:11:45;29.30;93.70
24338;DHT22;12457;50.832;4.346;2023-07-09T09:14:38;29.50;93.80
24338;DHT22;12457;50.832;4.346;2023-07-09T09:17:15;30.00;93.10
24338;DHT22;12457;50.832;4.346;2023-07-09T09:19:54;30.10;92.90
24338;DHT22;12457;50.832;4.346;2023-07-09T09:22:27;30.00;93.30
24338;DHT22;12457;50.832;4.346;2023-07-09T09:28:35;29.80;93.20
24338;DHT22;12457;50.832;4.346;2023-07-09T09:31:03;29.80;93.50
24338;DHT22;12457;50.832;4.346;2023-07-09T09:33:44;30.00;93.40
24338;DHT22;12457;50.832;4.346;2023-07-09T09:36:21;30.20;93.20
24338;DHT22;12457;50.832;4.346;2023-07-09T09:38:47;30.50;92.60
24338;DHT22;12457;50.832;4.346;2023-07-09T09:44:43;30.60;93.30
24338;DHT22;12457;50.832;4.346;2023-07-09T09:47:11;30.60;93.50
24338;DHT22;12457;50.832;4.346;2023-07-09T09:49:41;30.70;93.00
24338;DHT22;12457;50.832;4.346;2023-07-09T09:52:18;30.90;92.70
24338;DHT22;12457;50.832;4.346;2023-07-09T09:54:53;31.10;92.80
24338;DHT22;12457;50.832;4.346;2023-07-09T10:00:49;30.30;94.30
24338;DHT22;12457;50.832;4.346;2023-07-09T10:03:15;30.70;94.30
24338;DHT22;12457;50.832;4.346;2023-07-09T10:05:45;30.90;93.50
24338;DHT22;12457;50.832;4.346;2023-07-09T10:11:15;30.90;92.90
24338;DHT22;12457;50.832;4.346;2023-07-09T10:13:43;30.90;93.10
24338;DHT22;12457;50.832;4.346;2023-07-09T10:16:25;30.80;93.10
24338;DHT22;12457;50.832;4.346;2023-07-09T10:22:00;30.60;93.60
24338;DHT22;12457;50.832;4.346;2023-07-09T10:24:37;30.50;93.90
24338;DHT22;12457;50.832;4.346;2023-07-09T10:27:13;30.40;94.10
24338;DHT22;12457;50.832;4.346;2023-07-09T10:32:49;30.70;94.20
24338;DHT22;12457;50.832;4.346;2023-07-09T10:35:37;30.90;94.00
24338;DHT22;12457;50.832;4.346;2023-07-09T10:40:41;31.30;93.30
24338;DHT22;12457;50.832;4.346;2023-07-09T10:43:13;31.50;92.60
24338;DHT22;12457;50.832;4.346;2023-07-09T10:45:45;31.00;92.60
24338;DHT22;12457;50.832;4.346;2023-07-09T10:48:20;30.60;93.50
24338;DHT22;12457;50.832;4.346;2023-07-09T10:50:52;29.90;94.30
24338;DHT22;12457;50.832;4.346;2023-07-09T10:53:39;30.00;94.80
24338;DHT22;12457;50.832;4.346;2023-07-09T10:56:12;29.40;95.90
24338;DHT22;12457;50.832;4.346;2023-07-09T10:58:41;29.50;96.30
24338;DHT22;12457;50.832;4.346;2023-07-09T11:01:12;29.60;96.20
24338;DHT22;12457;50.832;4.346;2023-07-09T11:03:48;29.80;96.00
24338;DHT22;12457;50.832;4.346;2023-07-09T11:06:22;29.90;95.80
24338;DHT22;12457;50.832;4.346;2023-07-09T11:08:53;30.00;95.70
24338;DHT22;12457;50.832;4.346;2023-07-09T11:11:44;29.90;95.90
24338;DHT22;12457;50.832;4.346;2023-07-09T11:14:58;29.30;96.20
24338;DHT22;12457;50.832;4.346;2023-07-09T11:17:27;29.20;96.60
24338;DHT22;12457;50.832;4.346;2023-07-09T11:19:55;28.80;97.30
24338;DHT22;12457;50.832;4.346;2023-07-09T11:22:38;28.70;97.60
24338;DHT22;12457;50.832;4.346;2023-07-09T11:27:33;29.10;96.80
24338;DHT22;12457;50.832;4.346;2023-07-09T11:30:01;28.90;96.70
24338;DHT22;12457;50.832;4.346;2023-07-09T11:32:28;28.80;97.10
24338;DHT22;12457;50.832;4.346;2023-07-09T11:34:54;28.50;97.80
24338;DHT22;12457;50.832;4.346;2023-07-09T11:37:26;28.60;97.90
24338;DHT22;12457;50.832;4.346;2023-07-09T11:39:52;28.60;97.80
24338;DHT22;12457;50.832;4.346;2023-07-09T11:42:32;28.60;98.00
24338;DHT22;12457;50.832;4.346;2023-07-09T11:45:01;28.20;98.70
24338;DHT22;12457;50.832;4.346;2023-07-09T11:47:40;27.80;99.50
24338;DHT22;12457;50.832;4.346;2023-07-09T11:50:29;27.80;99.80
24338;DHT22;12457;50.832;4.346;2023-07-09T11:53:01;27.80;99.90
24338;DHT22;12457;50.832;4.346;2023-07-09T11:55:55;27.80;99.90
24338;DHT22;12457;50.832;4.346;2023-07-09T11:58:21;27.70;99.80
24338;DHT22;12457;50.832;4.346;2023-07-09T12:00:50;27.40;99.90
24338;DHT22;12457;50.832;4.346;2023-07-09T12:05:53;27.20;99.90
24338;DHT22;12457;50.832;4.346;2023-07-09T12:08:27;27.20;99.90
24338;DHT22;12457;50.832;4.346;2023-07-09T12:10:54;27.10;99.90
24338;DHT22;12457;50.832;4.346;2023-07-09T12:13:20;27.00;99.90
24338;DHT22;12457;50.832;4.346;2023-07-09T12:15:47;27.10;99.90
24338;DHT22;12457;50.832;4.346;2023-07-09T12:18:15;27.10;99.90
24338;DHT22;12457;50.832;4.346;2023-07-09T12:20:47;27.00;99.90
24338;DHT22;12457;50.832;4.346;2023-07-09T12:23:25;26.50;99.90
24338;DHT22;12457;50.832;4.346;2023-07-09T12:25:53;25.90;99.90
24338;DHT22;12457;50.832;4.346;2023-07-09T12:28:21;25.50;99.90
24338;DHT22;12457;50.832;4.346;2023-07-09T12:30:49;25.00;99.90
24338;DHT22;12457;50.832;4.346;2023-07-09T12:33:20;24.70;99.90
24338;DHT22;12457;50.832;4.346;2023-07-09T12:35:48;24.30;99.90
24338;DHT22;12457;50.832;4.346;2023-07-09T12:38:26;24.00;99.90
24338;DHT22;12457;50.832;4.346;2023-07-09T12:40:54;23.80;99.90
24338;DHT22;12457;50.832;4.346;2023-07-09T12:43:28;23.80;99.90
24338;DHT22;12457;50.832;4.346;2023-07-09T12:45:56;23.60;99.90
24338;DHT22;12457;50.832;4.346;2023-07-09T12:48:24;23.50;99.90
24338;DHT22;12457;50.832;4.346;2023-07-09T12:50:51;23.30;99.90
24338;DHT22;12457;50.832;4.346;2023-07-09T12:53:20;23.20;99.90
24338;DHT22;12457;50.832;4.346;2023-07-09T12:55:49;23.00;99.90
24338;DHT22;12457;50.832;4.346;2023-07-09T12:58:21;23.00;99.90
24338;DHT22;12457;50.832;4.346;2023-07-09T13:00:52;23.00;99.90
24338;DHT22;12457;50.832;4.346;2023-07-09T13:03:24;23.00;99.90
24338;DHT22;12457;50.832;4.346;2023-07-09T13:05:53;23.00;99.90
24338;DHT22;12457;50.832;4.346;2023-07-09T13:08:19;22.90;99.90
24338;DHT22;12457;50.832;4.346;2023-07-09T13:10:44;23.00;99.90
24338;DHT22;12457;50.832;4.346;2023-07-09T13:13:13;23.10;99.90
24338;DHT22;12457;50.832;4.346;2023-07-09T13:15:43;23.10;99.90
24338;DHT22;12457;50.832;4.346;2023-07-09T13:18:12;23.10;99.90
24338;DHT22;12457;50.832;4.346;2023-07-09T13:20:41;22.90;99.90
24338;DHT22;12457;50.832;4.346;2023-07-09T13:23:29;22.90;99.90
24338;DHT22;12457;50.832;4.346;2023-07-09T13:25:58;22.80;99.90
24338;DHT22;12457;50.832;4.346;2023-07-09T13:28:31;22.80;99.90
24338;DHT22;12457;50.832;4.346;2023-07-09T13:31:18;22.80;99.90
24338;DHT22;12457;50.832;4.346;2023-07-09T13:33:54;22.90;99.90
24338;DHT22;12457;50.832;4.346;2023-07-09T13:36:20;23.20;99.90
24338;DHT22;12457;50.832;4.346;2023-07-09T13:38:46;23.20;99.90
24338;DHT22;12457;50.832;4.346;2023-07-09T13:41:17;23.20;99.90
24338;DHT22;12457;50.832;4.346;2023-07-09T13:43:47;23.20;99.90
24338;DHT22;12457;50.832;4.346;2023-07-09T13:46:14;23.40;99.90
24338;DHT22;12457;50.832;4.346;2023-07-09T13:48:42;23.40;99.90
24338;DHT22;12457;50.832;4.346;2023-07-09T13:51:15;23.40;99.90
24338;DHT22;12457;50.832;4.346;2023-07-09T13:53:41;23.50;99.90
24338;DHT22;12457;50.832;4.346;2023-07-09T13:56:07;23.80;99.90
24338;DHT22;12457;50.832;4.346;2023-07-09T13:58:51;23.90;99.90
24338;DHT22;12457;50.832;4.346;2023-07-09T14:01:24;24.20;99.90
24338;DHT22;12457;50.832;4.346;2023-07-09T14:03:51;24.20;99.90
24338;DHT22;12457;50.832;4.346;2023-07-09T14:06:18;24.30;99.90
24338;DHT22;12457;50.832;4.346;2023-07-09T14:08:44;24.60;99.90
24338;DHT22;12457;50.832;4.346;2023-07-09T14:11:16;25.10;99.90
24338;DHT22;12457;50.832;4.346;2023-07-09T14:16:49;25.40;99.90
24338;DHT22;12457;50.832;4.346;2023-07-09T14:19:21;25.60;99.90
24338;DHT22;12457;50.832;4.346;2023-07-09T14:21:48;25.50;99.90
24338;DHT22;12457;50.832;4.346;2023-07-09T14:24:21;25.50;99.90
24338;DHT22;12457;50.832;4.346;2023-07-09T14:26:52;25.60;99.90
24338;DHT22;12457;50.832;4.346;2023-07-09T14:29:19;25.60;99.90
24338;DHT22;12457;50.832;4.346;2023-07-09T14:31:46;25.60;99.90
24338;DHT22;12457;50.832;4.346;2023-07-09T14:34:28;25.60;99.90
24338;DHT22;12457;50.832;4.346;2023-07-09T14:36:57;25.50;99.90
24338;DHT22;12457;50.832;4.346;2023-07-09T14:39:25;25.30;99.90
24338;DHT22;12457;50.832;4.346;2023-07-09T14:41:51;25.30;99.90
24338;DHT22;12457;50.832;4.346;2023-07-09T14:44:27;25.50;99.90
24338;DHT22;12457;50.832;4.346;2023-07-09T14:46:55;25.40;99.90
24338;DHT22;12457;50.832;4.346;2023-07-09T14:49:23;25.40;99.90
24338;DHT22;12457;50.832;4.346;2023-07-09T14:51:49;25.40;99.90
24338;DHT22;12457;50.832;4.346;2023-07-09T14:54:27;25.50;99.90
24338;DHT22;12457;50.832;4.346;2023-07-09T14:56:56;25.70;99.90
24338;DHT22;12457;50.832;4.346;2023-07-09T14:59:24;26.00;99.90
24338;DHT22;12457;50.832;4.346;2023-07-09T15:01:50;26.20;99.90
24338;DHT22;12457;50.832;4.346;2023-07-09T15:04:31;26.20;99.90
24338;DHT22;12457;50.832;4.346;2023-07-09T15:06:58;26.30;99.90
24338;DHT22;12457;50.832;4.346;2023-07-09T15:09:25;26.20;99.90
24338;DHT22;12457;50.832;4.346;2023-07-09T15:11:54;26.10;99.90
24338;DHT22;12457;50.832;4.346;2023-07-09T15:14:27;26.20;99.90
24338;DHT22;12457;50.832;4.346;2023-07-09T15:16:53;26.40;99.90
24338;DHT22;12457;50.832;4.346;2023-07-09T15:19:20;26.60;99.90
24338;DHT22;12457;50.832;4.346;2023-07-09T15:21:49;26.70;99.90
24338;DHT22;12457;50.832;4.346;2023-07-09T15:24:27;26.90;99.90
24338;DHT22;12457;50.832;4.346;2023-07-09T15:26:57;27.00;99.90
24338;DHT22;12457;50.832;4.346;2023-07-09T15:29:25;27.00;99.90
24338;DHT22;12457;50.832;4.346;2023-07-09T15:31:51;26.70;99.90
24338;DHT22;12457;50.832;4.346;2023-07-09T15:34:17;26.30;99.90
24338;DHT22;12457;50.832;4.346;2023-07-09T15:36:49;26.40;99.90
24338;DHT22;12457;50.832;4.346;2023-07-09T15:39:17;26.50;99.90
24338;DHT22;12457;50.832;4.346;2023-07-09T15:41:43;26.70;99.90
24338;DHT22;12457;50.832;4.346;2023-07-09T15:44:14;26.50;99.90
24338;DHT22;12457;50.832;4.346;2023-07-09T15:46:45;26.70;99.90
24338;DHT22;12457;50.832;4.346;2023-07-09T15:49:13;26.60;99.90
24338;DHT22;12457;50.832;4.346;2023-07-09T15:51:39;26.60;99.90
24338;DHT22;12457;50.832;4.346;2023-07-09T15:54:16;26.70;99.90
24338;DHT22;12457;50.832;4.346;2023-07-09T15:56:43;26.60;99.90
24338;DHT22;12457;50.832;4.346;2023-07-09T15:59:24;26.60;99.90
24338;DHT22;12457;50.832;4.346;2023-07-09T16:01:52;26.40;99.90
24338;DHT22;12457;50.832;4.346;2023-07-09T16:04:17;26.40;99.90
24338;DHT22;12457;50.832;4.346;2023-07-09T16:06:43;26.40;99.90
24338;DHT22;12457;50.832;4.346;2023-07-09T16:09:09;26.50;99.90
24338;DHT22;12457;50.832;4.346;2023-07-09T16:11:40;26.30;99.90
24338;DHT22;12457;50.832;4.346;2023-07-09T16:16:52;25.70;99.90
24338;DHT22;12457;50.832;4.346;2023-07-09T16:19:23;25.50;99.90
24338;DHT22;12457;50.832;4.346;2023-07-09T16:21:56;25.40;99.90
24338;DHT22;12457;50.832;4.346;2023-07-09T16:24:30;25.60;99.90
24338;DHT22;12457;50.832;4.346;2023-07-09T16:26:57;25.50;99.90
24338;DHT22;12457;50.832;4.346;2023-07-09T16:29:30;25.70;99.90
24338;DHT22;12457;50.832;4.346;2023-07-09T16:31:57;25.60;99.90
24338;DHT22;12457;50.832;4.346;2023-07-09T16:34:27;25.60;99.90
24338;DHT22;12457;50.832;4.346;2023-07-09T16:36:55;25.70;99.90
24338;DHT22;12457;50.832;4.346;2023-07-09T16:39:28;25.70;99.90
24338;DHT22;12457;50.832;4.346;2023-07-09T16:41:57;25.70;99.90
24338;DHT22;12457;50.832;4.346;2023-07-09T16:44:26;25.50;99.90
24338;DHT22;12457;50.832;4.346;2023-07-09T16:46:52;25.10;99.90
24338;DHT22;12457;50.832;4.346;2023-07-09T16:49:39;25.10;99.90
24338;DHT22;12457;50.832;4.346;2023-07-09T16:52:18;25.10;99.90
24338;DHT22;12457;50.832;4.346;2023-07-09T16:54:45;25.00;99.90
24338;DHT22;12457;50.832;4.346;2023-07-09T16:57:17;24.80;99.90
24338;DHT22;12457;50.832;4.346;2023-07-09T16:59:43;24.70;99.90
24338;DHT22;12457;50.832;4.346;2023-07-09T17:02:34;24.50;99.90
24338;DHT22;12457;50.832;4.346;2023-07-09T17:05:02;24.20;99.90
24338;DHT22;12457;50.832;4.346;2023-07-09T17:07:33;24.10;99.90
24338;DHT22;12457;50.832;4.346;2023-07-09T17:09:59;24.10;99.90
24338;DHT22;12457;50.832;4.346;2023-07-09T17:12:26;24.00;99.90
24338;DHT22;12457;50.832;4.346;2023-07-09T17:14:52;23.80;99.90
24338;DHT22;12457;50.832;4.346;2023-07-09T17:17:23;23.50;99.90
24338;DHT22;12457;50.832;4.346;2023-07-09T17:19:49;23.50;99.90